aviador You're here:

EPZG Decoded Metar

ZIELONA GORA in POLAND
Report Time2018-01-16 21:00:00
UTC Time2018-01-16 21:08:42
Flight Rules ifr IFR
Wind230° at 13 kt
W.Decomp.*RWY 24: 12.7 kt HW 2.9 kt LCW
W.Rank230° ranks 2
Current wind is above 230° avg. (8.2)
Visibility9999 m
Phenomena:N/A
Clouds:Broken 009 Hf
Overcast 012 Hf
Ceiling900 ft
Temp02°C (ISA -13)
Dew Point02°C (100% RH)
AAT-4.4°C
QNH0990 hPa
Density Alt-453 ft
Elevation194 ft
Report Wrong Elevation
Raw Report
METAR EPZG 162100Z 23013KT 9999 BKN009 OVC012 02/02 Q0990 =

Extra information for EPZG:More info

Metar Taf Metar & Taf Last 4 Metars F.Rules Stats Wind Profile Meteogram Temp Stats Airport Information Weather charts Add Link Nearby VenuesMetar ALERT Operation Metar Decoded Social comments